Time;durP1;ratioP1;P1;durP2;ratioP2;P2;SDS_P1;SDS_P2;PMS_P1;PMS_P2;Temp;Humidity;BMP_temperature;BMP_pressure;BME280_temperature;BME280_humidity;BME280_pressure;Samples;Min_cycle;Max_cycle;Signal;HPM_P1;HPM_P2
2022/02/05 00:03:05;;;;;;;1999.90;999.90;;;;;;;-1.25;60.85;100572.47;4979146;28;98730;-70
2022/02/05 00:05:39;;;;;;;1999.90;999.90;;;;;;;-1.27;60.68;100581.91;4967262;28;99629;-70
2022/02/05 00:08:20;;;;;;;1999.90;999.90;;;;;;;-1.25;60.66;100577.69;4980954;28;97625;-69
2022/02/05 00:13:48;;;;;;;1999.90;999.90;;;;;;;-1.24;60.90;100583.00;4928793;28;96711;-69
2022/02/05 00:38:25;;;;;;;1999.90;999.90;;;;;;;-1.31;60.75;100626.88;4981962;28;99734;-69
2022/02/05 00:40:57;;;;;;;1999.90;999.90;;;;;;;-1.30;60.52;100629.56;4965463;28;99127;-69
2022/02/05 00:43:27;;;;;;;1999.90;999.90;;;;;;;-1.28;60.29;100632.28;4979903;28;98627;-69
2022/02/05 00:45:56;;;;;;;1999.90;999.90;;;;;;;-1.30;61.08;100633.88;4982968;28;97599;-69
2022/02/05 00:48:24;;;;;;;1999.90;999.90;;;;;;;-1.28;60.32;100627.06;4984125;28;97492;-69
2022/02/05 00:50:57;;;;;;;1999.90;999.90;;;;;;;-1.29;60.75;100620.97;4985885;28;97817;-69
2022/02/05 00:53:30;;;;;;;1999.90;999.90;;;;;;;-1.30;60.62;100629.56;4948471;28;97388;-69
2022/02/05 00:56:06;;;;;;;1999.90;999.90;;;;;;;-1.31;60.17;100622.56;4981098;28;99176;-69
2022/02/05 00:58:38;;;;;;;1999.90;999.90;;;;;;;-1.29;60.63;100640.94;4981809;28;99232;-70
2022/02/05 01:01:06;;;;;;;1999.90;999.90;;;;;;;-1.29;60.77;100651.38;4980142;28;97898;-69
2022/02/05 01:03:34;;;;;;;1999.90;999.90;;;;;;;-1.31;60.21;100655.56;4963844;28;97114;-69
2022/02/05 01:06:04;;;;;;;1999.90;999.90;;;;;;;-1.33;60.11;100660.69;4984936;28;97750;-69
2022/02/05 01:08:32;;;;;;;1999.90;999.90;;;;;;;-1.35;60.30;100657.09;4984196;28;99323;-70
2022/02/05 01:11:00;;;;;;;1999.90;999.90;;;;;;;-1.36;60.33;100659.59;4950276;28;100643;-69
2022/02/05 01:13:31;;;;;;;1999.90;999.90;;;;;;;-1.35;60.55;100664.91;4982909;28;98555;-69
2022/02/05 01:16:06;;;;;;;1999.90;999.90;;;;;;;-1.35;60.34;100671.81;4963542;28;96838;-70
2022/02/05 01:18:35;;;;;;;1999.90;999.90;;;;;;;-1.37;60.80;100670.81;4976262;28;98086;-69
2022/02/05 01:21:10;;;;;;;1999.90;999.90;;;;;;;-1.40;60.62;100679.38;4949290;28;99220;-69
2022/02/05 01:23:44;;;;;;;1999.90;999.90;;;;;;;-1.40;60.87;100681.06;4984412;28;97031;-69
2022/02/05 01:26:18;;;;;;;1999.90;999.90;;;;;;;-1.43;60.87;100683.47;4966787;28;97381;-69
2022/02/05 01:28:51;;;;;;;1999.90;999.90;;;;;;;-1.45;60.63;100685.06;4964955;28;100723;-69
2022/02/05 01:31:24;;;;;;;1999.90;999.90;;;;;;;-1.46;60.84;100701.50;4979183;28;98609;-69
2022/02/05 01:34:02;;;;;;;1999.90;999.90;;;;;;;-1.46;60.85;100706.72;4964351;28;99018;-69
2022/02/05 01:39:28;;;;;;;1999.90;999.90;;;;;;;-1.47;60.59;100712.78;4967947;28;97624;-68
2022/02/05 01:50:54;;;;;;;1999.90;999.90;;;;;;;-1.48;60.69;100726.59;4979554;28;97839;-68
2022/02/05 01:53:37;;;;;;;1999.90;999.90;;;;;;;-1.51;60.21;100731.63;4963239;28;99094;-69
2022/02/05 01:56:25;;;;;;;1999.90;999.90;;;;;;;-1.55;60.14;100727.00;4977174;28;98703;-68
2022/02/05 01:59:10;;;;;;;1999.90;999.90;;;;;;;-1.55;60.03;100727.00;4980984;28;96981;-69
2022/02/05 02:07:13;;;;;;;1999.90;999.90;;;;;;;-1.61;60.13;100740.50;4979615;28;97113;-68
2022/02/05 02:10:10;;;;;;;1999.90;999.90;;;;;;;-1.60;60.29;100757.09;4961746;28;97008;-69
2022/02/05 02:12:42;;;;;;;1999.90;999.90;;;;;;;-1.61;60.05;100744.81;4979955;28;99305;-69
2022/02/05 02:15:17;;;;;;;1999.90;999.90;;;;;;;-1.62;59.97;100753.47;4983419;28;97389;-69
2022/02/05 02:20:53;;;;;;;1999.90;999.90;;;;;;;-1.70;60.01;100765.06;4950815;28;97671;-69
2022/02/05 02:23:33;;;;;;;1999.90;999.90;;;;;;;-1.68;60.04;100766.06;4966659;28;100727;-68
2022/02/05 02:26:08;;;;;;;1999.90;999.90;;;;;;;-1.66;60.43;100767.09;4982898;28;99233;-69
2022/02/05 02:28:47;;;;;;;1999.90;999.90;;;;;;;-1.65;60.35;100771.53;4979534;28;97252;-68
2022/02/05 02:31:20;;;;;;;1999.90;999.90;;;;;;;-1.66;60.17;100774.91;4963508;28;98455;-69
2022/02/05 02:33:51;;;;;;;1999.90;999.90;;;;;;;-1.65;60.33;100774.13;4979946;28;98793;-69
2022/02/05 02:36:29;;;;;;;1999.90;999.90;;;;;;;-1.67;60.03;100781.84;4981339;28;97684;-68
2022/02/05 02:39:05;;;;;;;1999.90;999.90;;;;;;;-1.67;60.10;100778.34;4963675;28;99177;-69
2022/02/05 02:41:39;;;;;;;1999.90;999.90;;;;;;;-1.69;60.14;100770.41;4965524;28;97545;-69
2022/02/05 02:44:07;;;;;;;1999.90;999.90;;;;;;;-1.68;60.32;100790.47;4981617;28;97866;-70
2022/02/05 02:46:35;;;;;;;1999.90;999.90;;;;;;;-1.67;60.59;100793.97;4964169;28;100452;-69
2022/02/05 02:49:04;;;;;;;1999.90;999.90;;;;;;;-1.66;60.13;100780.13;4979743;28;99680;-68
2022/02/05 02:57:16;;;;;;;1999.90;999.90;;;;;;;-1.73;60.28;100796.16;4983838;28;97721;-69
2022/02/05 02:59:51;;;;;;;1999.90;999.90;;;;;;;-1.72;61.00;100792.75;4980216;28;99149;-68
2022/02/05 03:02:21;;;;;;;1999.90;999.90;;;;;;;-1.71;60.33;100795.47;4976742;28;99102;-68
2022/02/05 03:04:49;;;;;;;1999.90;999.90;;;;;;;-1.72;60.86;100792.75;4977386;28;99168;-68
2022/02/05 03:07:17;;;;;;;1999.90;999.90;;;;;;;-1.72;60.50;100803.19;4976717;28;97617;-69
2022/02/05 03:09:46;;;;;;;1999.90;999.90;;;;;;;-1.74;61.15;100810.88;4978790;28;96877;-69
2022/02/05 03:12:14;;;;;;;1999.90;999.90;;;;;;;-1.73;60.41;100833.59;4962780;28;97311;-69
2022/02/05 03:14:42;;;;;;;1999.90;999.90;;;;;;;-1.77;60.75;100826.31;4965326;28;98750;-69
2022/02/05 03:17:17;;;;;;;1999.90;999.90;;;;;;;-1.79;61.80;100822.72;4980785;28;101176;-68
2022/02/05 03:19:47;;;;;;;1999.90;999.90;;;;;;;-1.74;61.04;100815.22;4961184;28;96846;-68
2022/02/05 03:22:16;;;;;;;1999.90;999.90;;;;;;;-1.72;60.79;100816.25;4958737;28;97028;-68
2022/02/05 03:24:45;;;;;;;1999.90;999.90;;;;;;;-1.76;61.01;100827.25;4978584;28;99083;-68
2022/02/05 03:27:14;;;;;;;1999.90;999.90;;;;;;;-1.73;61.20;100843.09;4979539;28;99496;-68
2022/02/05 03:29:46;;;;;;;1999.90;999.90;;;;;;;-1.71;60.59;100826.78;4966319;28;98332;-68
2022/02/05 03:32:14;;;;;;;1999.90;999.90;;;;;;;-1.69;61.12;100832.09;4967691;28;97747;-69
2022/02/05 03:34:42;;;;;;;1999.90;999.90;;;;;;;-1.72;61.49;100822.34;4951406;28;98990;-69
2022/02/05 03:37:10;;;;;;;1999.90;999.90;;;;;;;-1.66;61.28;100824.47;4980423;28;97405;-68
2022/02/05 03:39:37;;;;;;;1999.90;999.90;;;;;;;-1.63;60.75;100829.91;4946846;28;97502;-69
2022/02/05 03:42:07;;;;;;;1999.90;999.90;;;;;;;-1.61;60.57;100818.78;4961822;28;97762;-68
2022/02/05 03:44:35;;;;;;;1999.90;999.90;;;;;;;-1.58;61.06;100823.31;4978189;28;97645;-68
2022/02/05 03:47:03;;;;;;;1999.90;999.90;;;;;;;-1.57;61.13;100825.09;4981869;28;98238;-68
2022/02/05 03:49:31;;;;;;;1999.90;999.90;;;;;;;-1.56;60.49;100833.03;4968029;28;97195;-68
2022/02/05 03:51:58;;;;;;;1999.90;999.90;;;;;;;-1.56;61.15;100827.81;4982616;28;99241;-68
2022/02/05 03:54:29;;;;;;;1999.90;999.90;;;;;;;-1.57;61.40;100820.81;4965569;28;99648;-68
2022/02/05 03:56:56;;;;;;;1999.90;999.90;;;;;;;-1.61;61.36;100817.84;4983782;28;99356;-68
2022/02/05 03:59:25;;;;;;;1999.90;999.90;;;;;;;-1.59;60.57;100826.69;4950686;28;98278;-68
2022/02/05 04:01:54;;;;;;;1999.90;999.90;;;;;;;-1.56;60.76;100832.16;4985263;28;97000;-68
2022/02/05 04:04:23;;;;;;;1999.90;999.90;;;;;;;-1.59;61.11;100843.28;4983439;28;99230;-68
2022/02/05 04:06:51;;;;;;;1999.90;999.90;;;;;;;-1.57;60.53;100840.75;4982259;28;99203;-68
2022/02/05 04:09:23;;;;;;;1999.90;999.90;;;;;;;-1.58;60.60;100838.97;4982200;28;97158;-68
2022/02/05 04:11:59;;;;;;;1999.90;999.90;;;;;;;-1.61;60.83;100842.25;4949416;28;96971;-67
2022/02/05 04:17:14;;;;;;;1999.90;999.90;;;;;;;-1.56;60.91;100839.97;4981416;28;98346;-68
2022/02/05 04:19:41;;;;;;;1999.90;999.90;;;;;;;-1.56;61.00;100848.69;4983783;28;98186;-68
2022/02/05 04:22:09;;;;;;;1999.90;999.90;;;;;;;-1.56;60.59;100850.41;4983976;28;97901;-67
2022/02/05 04:24:37;;;;;;;1999.90;999.90;;;;;;;-1.55;60.71;100847.00;4966181;28;97637;-68
2022/02/05 04:27:05;;;;;;;1999.90;999.90;;;;;;;-1.56;61.10;100845.19;4983031;28;98681;-68
2022/02/05 04:29:34;;;;;;;1999.90;999.90;;;;;;;-1.53;60.83;100856.75;4966639;28;98124;-68
2022/02/05 04:32:01;;;;;;;1999.90;999.90;;;;;;;-1.58;60.55;100844.19;4967972;28;98080;-68
2022/02/05 04:34:29;;;;;;;1999.90;999.90;;;;;;;-1.51;60.49;100847.34;4983293;28;98818;-68
2022/02/05 04:36:58;;;;;;;1999.90;999.90;;;;;;;-1.52;60.39;100849.84;4982185;28;99387;-68
2022/02/05 04:39:26;;;;;;;1999.90;999.90;;;;;;;-1.51;60.56;100855.16;4966964;28;96859;-67
2022/02/05 04:42:01;;;;;;;1999.90;999.90;;;;;;;-1.49;60.37;100868.31;4982752;28;99073;-68
2022/02/05 04:44:50;;;;;;;1999.90;999.90;;;;;;;-1.48;60.43;100867.50;4948109;28;100724;-68
2022/02/05 04:53:15;;;;;;;1999.90;999.90;;;;;;;-1.43;59.90;100876.59;4981439;28;96962;-67
2022/02/05 04:58:48;;;;;;;1999.90;999.90;;;;;;;-1.39;60.11;100878.56;4982730;28;99221;-68
2022/02/05 05:01:23;;;;;;;1999.90;999.90;;;;;;;-1.39;59.84;100884.72;4978613;28;97423;-68
2022/02/05 05:04:06;;;;;;;1999.90;999.90;;;;;;;-1.38;59.79;100872.56;4979523;28;97402;-67
2022/02/05 05:07:45;;;;;;;1999.90;999.90;;;;;;;-1.40;60.12;100885.53;4963514;28;99326;-68
2022/02/05 05:09:47;;;;;;;1999.90;999.90;;;;;;;-1.41;60.36;100870.66;4965209;28;99316;-67
2022/02/05 05:12:32;;;;;;;1999.90;999.90;;;;;;;-1.40;60.27;100871.56;4981621;28;96801;-68
2022/02/05 05:20:54;;;;;;;1999.90;999.90;;;;;;;-1.42;59.51;100886.19;4921198;28;96978;-68
2022/02/05 05:23:21;;;;;;;1999.90;999.90;;;;;;;-1.43;59.86;100890.50;4941575;28;97415;-68
2022/02/05 05:25:49;;;;;;;1999.90;999.90;;;;;;;-1.43;59.97;100889.63;4980814;28;97505;-69
2022/02/05 05:28:17;;;;;;;1999.90;999.90;;;;;;;-1.47;60.26;100885.88;4967329;28;100435;-68
2022/02/05 05:30:45;;;;;;;1999.90;999.90;;;;;;;-1.46;60.10;100898.13;4985215;28;99023;-68
2022/02/05 05:33:13;;;;;;;1999.90;999.90;;;;;;;-1.43;59.76;100910.50;4951691;28;98212;-68
2022/02/05 05:35:41;;;;;;;1999.90;999.90;;;;;;;-1.43;60.35;100897.47;4946211;28;98580;-68
2022/02/05 05:38:10;;;;;;;1999.90;999.90;;;;;;;-1.42;59.54;100920.13;4964675;28;99341;-68
2022/02/05 05:40:40;;;;;;;1999.90;999.90;;;;;;;-1.42;59.63;100926.25;4981483;28;97758;-68
2022/02/05 05:43:19;;;;;;;1999.90;999.90;;;;;;;-1.37;59.52;100934.41;4980260;28;97245;-68
2022/02/05 05:46:15;;;;;;;1999.90;999.90;;;;;;;-1.34;59.70;100945.06;4964587;28;98153;-68
2022/02/05 05:48:56;;;;;;;1999.90;999.90;;;;;;;-1.32;59.75;100990.47;4985440;28;97618;-69
2022/02/05 05:51:23;;;;;;;1999.90;999.90;;;;;;;-1.50;61.72;100984.81;4963083;28;99247;-68
2022/02/05 05:53:52;;;;;;;1999.90;999.90;;;;;;;-1.80;67.09;101010.38;4980875;28;96815;-67
2022/02/05 05:56:23;;;;;;;1999.90;999.90;;;;;;;-2.20;70.37;101009.97;4978764;28;96907;-68
2022/02/05 05:58:51;;;;;;;1999.90;999.90;;;;;;;-2.43;69.68;101020.38;4979475;28;99129;-68
2022/02/05 06:01:18;;;;;;;1999.90;999.90;;;;;;;-2.56;68.15;101017.59;4976767;28;97718;-68
2022/02/05 06:03:46;;;;;;;1999.90;999.90;;;;;;;-2.66;65.97;101011.59;4964702;28;97793;-68
2022/02/05 06:06:14;;;;;;;1999.90;999.90;;;;;;;-2.77;66.39;101008.16;4963323;28;97278;-68
2022/02/05 06:08:42;;;;;;;1999.90;999.90;;;;;;;-2.79;66.16;101006.22;4944727;28;100010;-70
2022/02/05 06:11:11;;;;;;;1999.90;999.90;;;;;;;-2.76;65.62;101002.16;4982496;28;97657;-68
2022/02/05 06:13:39;;;;;;;1999.90;999.90;;;;;;;-2.74;65.79;101010.97;4984383;28;99491;-68
2022/02/05 06:16:11;;;;;;;1999.90;999.90;;;;;;;-2.76;65.03;101022.09;4979634;28;98162;-68
2022/02/05 06:18:38;;;;;;;1999.90;999.90;;;;;;;-2.75;64.82;101018.69;4963983;28;99396;-68
2022/02/05 06:21:06;;;;;;;1999.90;999.90;;;;;;;-2.76;65.16;101027.31;4983380;28;97469;-68
2022/02/05 06:23:34;;;;;;;1999.90;999.90;;;;;;;-2.73;65.20;101020.63;4980902;28;97373;-68
2022/02/05 06:26:02;;;;;;;1999.90;999.90;;;;;;;-2.75;65.02;101008.25;4964631;28;98607;-68
2022/02/05 06:28:30;;;;;;;1999.90;999.90;;;;;;;-2.75;64.75;101045.63;4961578;28;99925;-68
2022/02/05 06:30:58;;;;;;;1999.90;999.90;;;;;;;-2.75;64.70;101045.63;4976843;28;100952;-68
2022/02/05 06:33:26;;;;;;;1999.90;999.90;;;;;;;-2.78;64.50;101024.56;4979957;28;98310;-68
2022/02/05 06:35:55;;;;;;;1999.90;999.90;;;;;;;-2.79;63.29;101027.97;4979547;28;98736;-68
2022/02/05 06:38:24;;;;;;;1999.90;999.90;;;;;;;-2.84;63.82;101032.78;4982704;28;98658;-68
2022/02/05 06:40:52;;;;;;;1999.90;999.90;;;;;;;-2.85;63.13;101035.28;4982739;28;98917;-68
2022/02/05 06:43:20;;;;;;;1999.90;999.90;;;;;;;-2.88;63.86;101037.66;4980473;28;97514;-68
2022/02/05 06:45:49;;;;;;;1999.90;999.90;;;;;;;-2.88;63.71;101053.28;4981503;28;97207;-68
2022/02/05 06:48:17;;;;;;;1999.90;999.90;;;;;;;-2.91;64.25;101053.03;4980267;28;99735;-68
2022/02/05 06:50:44;;;;;;;1999.90;999.90;;;;;;;-2.91;63.93;101061.75;4950778;28;99866;-68
2022/02/05 06:53:12;;;;;;;1999.90;999.90;;;;;;;-2.90;63.82;101068.78;4981427;28;97449;-68
2022/02/05 06:55:40;;;;;;;1999.90;999.90;;;;;;;-2.85;64.01;101064.84;4984171;28;96791;-68
2022/02/05 06:58:08;;;;;;;1999.90;999.90;;;;;;;-2.80;63.58;101062.56;4966920;28;99381;-68
2022/02/05 07:00:35;;;;;;;1999.90;999.90;;;;;;;-2.77;63.28;101070.66;4966067;28;98864;-68
2022/02/05 07:03:04;;;;;;;1999.90;999.90;;;;;;;-2.74;63.26;101109.03;4981560;28;96776;-67
2022/02/05 07:05:32;;;;;;;1999.90;999.90;;;;;;;-2.74;63.56;101104.72;4964419;28;96932;-67
2022/02/05 07:08:00;;;;;;;1999.90;999.90;;;;;;;-2.74;63.52;101081.28;4980196;28;98003;-68
2022/02/05 07:10:28;;;;;;;1999.90;999.90;;;;;;;-2.73;63.08;101092.63;4981079;28;98944;-67
2022/02/05 07:13:10;;;;;;;1999.90;999.90;;;;;;;-2.71;62.89;101098.88;4981896;28;96911;-67
2022/02/05 07:15:43;;;;;;;1999.90;999.90;;;;;;;-2.70;63.03;101130.25;4960928;28;97555;-68
2022/02/05 07:18:18;;;;;;;1999.90;999.90;;;;;;;-2.70;62.93;101106.81;4964287;28;100159;-67
2022/02/05 07:20:51;;;;;;;1999.90;999.90;;;;;;;-2.74;63.54;101099.53;4969138;28;97138;-67
2022/02/05 07:23:42;;;;;;;1999.90;999.90;;;;;;;-2.78;63.87;101105.28;4981623;28;98358;-68
2022/02/05 07:29:14;;;;;;;1999.90;999.90;;;;;;;-2.86;64.50;101124.59;4977310;28;97247;-67
2022/02/05 07:31:48;;;;;;;1999.90;999.90;;;;;;;-2.85;63.91;101116.00;4977837;28;100745;-67
2022/02/05 07:34:18;;;;;;;1999.90;999.90;;;;;;;-2.82;63.76;101128.34;4962545;28;99307;-68
2022/02/05 07:36:46;;;;;;;1999.90;999.90;;;;;;;-2.84;64.44;101113.50;4982911;28;97357;-67
2022/02/05 07:39:14;;;;;;;1999.90;999.90;;;;;;;-2.79;64.08;101134.72;4979764;28;100445;-67
2022/02/05 07:41:43;;;;;;;1999.90;999.90;;;;;;;-2.78;63.44;101135.63;4977792;28;99301;-68
2022/02/05 07:44:13;;;;;;;1999.90;999.90;;;;;;;-2.79;64.03;101137.31;4981588;28;97395;-67
2022/02/05 07:46:43;;;;;;;1999.90;999.90;;;;;;;-2.77;63.88;101127.94;4978871;28;97134;-67
2022/02/05 07:49:13;;;;;;;1999.90;999.90;;;;;;;-2.75;63.44;101128.97;4982676;28;97638;-68
2022/02/05 07:51:42;;;;;;;1999.90;999.90;;;;;;;-2.79;63.97;101145.13;4983403;28;98587;-67
2022/02/05 07:54:11;;;;;;;1999.90;999.90;;;;;;;-2.73;63.68;101132.63;4984078;28;97216;-69
2022/02/05 07:56:41;;;;;;;1999.90;999.90;;;;;;;-2.69;63.20;101138.97;4968199;28;97580;-69
2022/02/05 07:59:09;;;;;;;1999.90;999.90;;;;;;;-2.66;63.56;101150.53;4984183;28;97808;-68
2022/02/05 08:01:37;;;;;;;1999.90;999.90;;;;;;;-2.63;63.31;101153.38;4985283;28;99157;-69
2022/02/05 08:04:05;;;;;;;1999.90;999.90;;;;;;;-2.58;62.92;101151.16;4988048;28;97882;-68
2022/02/05 08:06:34;;;;;;;1999.90;999.90;;;;;;;-2.56;63.11;101137.44;4989443;28;97089;-69
2022/02/05 08:09:11;;;;;;;1999.90;999.90;;;;;;;-2.51;63.02;101146.50;4984290;28;97041;-68
2022/02/05 08:11:42;;;;;;;1999.90;999.90;;;;;;;-2.46;63.00;101154.69;4984284;28;97284;-68
2022/02/05 08:14:11;;;;;;;1999.90;999.90;;;;;;;-2.42;62.85;101147.25;4980468;28;97570;-68
2022/02/05 08:16:50;;;;;;;1999.90;999.90;;;;;;;-2.39;62.16;101151.78;4986419;28;96932;-69
2022/02/05 08:19:18;;;;;;;1999.90;999.90;;;;;;;-2.37;63.16;101148.53;4965535;28;100785;-69
2022/02/05 08:22:06;;;;;;;1999.90;999.90;;;;;;;-2.35;62.97;101149.56;4986100;28;98789;-69
2022/02/05 08:24:38;;;;;;;1999.90;999.90;;;;;;;-2.28;62.12;101154.44;4983995;28;96712;-69
2022/02/05 08:27:06;;;;;;;1999.90;999.90;;;;;;;-2.23;61.99;101153.09;4984683;28;97692;-68
2022/02/05 08:29:36;;;;;;;1999.90;999.90;;;;;;;-2.18;62.59;101151.75;4985677;28;98404;-69
2022/02/05 08:32:04;;;;;;;1999.90;999.90;;;;;;;-2.10;62.18;101163.72;4986077;28;98008;-68
2022/02/05 08:34:32;;;;;;;1999.90;999.90;;;;;;;-2.08;62.51;101158.63;4986610;28;96763;-69
2022/02/05 08:37:00;;;;;;;1999.90;999.90;;;;;;;-2.01;62.52;101169.66;4982658;28;99609;-68
2022/02/05 08:39:28;;;;;;;1999.90;999.90;;;;;;;-1.95;61.91;101164.91;4978592;28;97808;-67
2022/02/05 08:41:57;;;;;;;1999.90;999.90;;;;;;;-1.87;61.96;101162.91;4979103;28;98621;-68
2022/02/05 08:44:25;;;;;;;1999.90;999.90;;;;;;;-1.81;61.80;101168.56;4977070;28;97465;-68
2022/02/05 08:46:53;;;;;;;1999.90;999.90;;;;;;;-1.74;61.12;101160.41;4978090;28;97884;-67
2022/02/05 08:49:21;;;;;;;1999.90;999.90;;;;;;;-1.68;61.48;101160.88;4964068;28;100121;-67
2022/02/05 08:51:49;;;;;;;1999.90;999.90;;;;;;;-1.65;61.13;101166.31;4979575;28;97853;-68
2022/02/05 08:54:17;;;;;;;1999.90;999.90;;;;;;;-1.60;61.38;101158.84;4965193;28;96950;-67
2022/02/05 08:56:45;;;;;;;1999.90;999.90;;;;;;;-1.59;61.48;101168.47;4983973;28;97459;-67
2022/02/05 08:59:15;;;;;;;1999.90;999.90;;;;;;;-1.52;61.31;101178.59;4981887;28;97105;-67
2022/02/05 09:01:51;;;;;;;1999.90;999.90;;;;;;;-1.48;60.87;101185.84;4982735;28;97534;-67
2022/02/05 09:04:27;;;;;;;1999.90;999.90;;;;;;;-1.44;61.30;101172.25;4982355;28;97647;-67
2022/02/05 09:06:58;;;;;;;1999.90;999.90;;;;;;;-1.36;60.90;101181.56;4983553;28;97172;-67
2022/02/05 09:09:32;;;;;;;1999.90;999.90;;;;;;;-1.33;60.84;101181.78;4985567;28;98847;-67
2022/02/05 09:12:15;;;;;;;1999.90;999.90;;;;;;;-1.26;60.83;101178.84;4983798;28;97391;-69
2022/02/05 09:14:48;;;;;;;1999.90;999.90;;;;;;;-1.23;60.59;101197.34;4967267;28;97459;-68
2022/02/05 09:17:16;;;;;;;1999.90;999.90;;;;;;;-1.16;60.26;101205.72;4981605;28;98103;-68
2022/02/05 09:19:45;;;;;;;1999.90;999.90;;;;;;;-1.11;60.35;101198.25;4983793;28;97656;-66
2022/02/05 09:22:13;;;;;;;1999.90;999.90;;;;;;;-1.08;60.07;101207.22;4984120;28;100880;-66
2022/02/05 09:24:41;;;;;;;1999.90;999.90;;;;;;;-1.04;59.89;101214.50;4983227;28;98245;-70
2022/02/05 09:27:12;;;;;;;1999.90;999.90;;;;;;;-1.01;60.18;101214.69;4985104;28;97509;-68
2022/02/05 09:29:46;;;;;;;1999.90;999.90;;;;;;;-0.99;60.25;101196.53;4978133;28;98526;-67
2022/02/05 09:32:15;;;;;;;1999.90;999.90;;;;;;;-0.94;60.03;101210.88;4978598;28;97664;-69
2022/02/05 09:34:43;;;;;;;1999.90;999.90;;;;;;;-0.91;59.49;101216.31;4979588;28;98134;-69
2022/02/05 09:37:11;;;;;;;1999.90;999.90;;;;;;;-0.86;59.35;101226.28;4973621;28;97378;-68
2022/02/05 09:39:38;;;;;;;1999.90;999.90;;;;;;;-0.79;59.88;101224.13;4970370;28;99092;-70
2022/02/05 09:42:08;;;;;;;1999.90;999.90;;;;;;;-0.74;59.39;101214.91;4977179;28;97976;-69
2022/02/05 09:44:36;;;;;;;1999.90;999.90;;;;;;;-0.72;59.42;101235.13;4978234;28;97308;-69
2022/02/05 09:47:05;;;;;;;1999.90;999.90;;;;;;;-0.69;58.92;101219.69;4977923;28;97330;-68
2022/02/05 09:49:35;;;;;;;1999.90;999.90;;;;;;;-0.67;59.09;101225.94;4975401;28;99187;-68
2022/02/05 09:52:11;;;;;;;1999.90;999.90;;;;;;;-0.64;59.03;101238.28;4974668;28;99022;-68
2022/02/05 09:54:40;;;;;;;1999.90;999.90;;;;;;;-0.62;59.06;101241.94;4978382;28;98028;-66
2022/02/05 09:57:08;;;;;;;1999.90;999.90;;;;;;;-0.61;58.95;101249.88;4980976;28;96777;-67
2022/02/05 09:59:40;;;;;;;1999.90;999.90;;;;;;;-0.62;58.66;101242.84;4981651;28;98546;-67
2022/02/05 10:02:18;;;;;;;1999.90;999.90;;;;;;;-0.65;57.90;101253.09;4960602;28;100691;-69
2022/02/05 10:04:55;;;;;;;1999.90;999.90;;;;;;;-0.59;58.44;101256.13;4976747;28;98655;-68
2022/02/05 10:07:52;;;;;;;1999.90;999.90;;;;;;;-0.59;58.30;101263.97;4958529;28;99927;-66
2022/02/05 10:10:20;;;;;;;1999.90;999.90;;;;;;;-0.54;58.95;101261.72;4980870;28;97219;-69
2022/02/05 10:13:06;;;;;;;1999.90;999.90;;;;;;;-0.52;57.77;101274.06;4980519;28;97405;-67
2022/02/05 10:15:34;;;;;;;1999.90;999.90;;;;;;;-0.49;58.72;101261.25;4981070;28;96814;-68
2022/02/05 10:18:03;;;;;;;1999.90;999.90;;;;;;;-0.47;58.86;101262.25;4972728;28;98710;-66
2022/02/05 10:20:32;;;;;;;1999.90;999.90;;;;;;;-0.45;58.98;101268.53;4978053;28;98938;-67
2022/02/05 10:23:08;;;;;;;1999.90;999.90;;;;;;;-0.46;58.52;101286.69;4975941;28;99265;-67
2022/02/05 10:25:36;;;;;;;1999.90;999.90;;;;;;;-0.42;59.00;101254.75;4962187;28;99080;-68
2022/02/05 10:28:09;;;;;;;1999.90;999.90;;;;;;;-0.42;58.70;101267.81;4979798;28;97427;-67
2022/02/05 10:30:40;;;;;;;1999.90;999.90;;;;;;;-0.37;58.77;101266.44;4979873;28;96749;-67
2022/02/05 10:33:13;;;;;;;1999.90;999.90;;;;;;;-0.36;58.75;101261.34;4978012;28;96818;-68
2022/02/05 10:35:46;;;;;;;1999.90;999.90;;;;;;;-0.35;58.53;101259.59;4980864;28;96865;-68
2022/02/05 10:38:35;;;;;;;1999.90;999.90;;;;;;;-0.30;58.84;101258.25;4978043;28;97165;-69
2022/02/05 10:43:52;;;;;;;1999.90;999.90;;;;;;;-0.30;58.32;101259.13;4955375;28;99166;-69
2022/02/05 10:46:21;;;;;;;1999.90;999.90;;;;;;;-0.29;58.55;101240.06;4968103;28;97427;-67
2022/02/05 10:48:52;;;;;;;1999.90;999.90;;;;;;;-0.25;58.53;101252.56;4970167;28;98838;-67
2022/02/05 10:51:21;;;;;;;1999.90;999.90;;;;;;;-0.23;58.66;101261.38;4977351;28;98614;-67
2022/02/05 10:53:53;;;;;;;1999.90;999.90;;;;;;;-0.21;58.08;101254.56;4978927;28;97237;-67
2022/02/05 10:56:30;;;;;;;1999.90;999.90;;;;;;;-0.17;58.72;101255.69;4979638;28;96767;-66
2022/02/05 10:59:17;;;;;;;1999.90;999.90;;;;;;;-0.15;58.10;101249.78;4979903;28;97260;-68
2022/02/05 11:07:19;;;;;;;1999.90;999.90;;;;;;;-0.15;57.72;101244.56;4973043;28;98993;-69
2022/02/05 11:09:51;;;;;;;1999.90;999.90;;;;;;;-0.14;57.82;101243.78;4972920;28;97302;-68
2022/02/05 11:12:21;;;;;;;1999.90;999.90;;;;;;;-0.11;57.37;101257.06;4967802;28;98054;-68
2022/02/05 11:20:26;;;;;;;1999.90;999.90;;;;;;;-0.07;56.88;101243.41;4965497;28;98223;-67
2022/02/05 11:22:59;;;;;;;1999.90;999.90;;;;;;;-0.03;57.24;101244.53;4945190;28;101183;-67
2022/02/05 11:25:32;;;;;;;1999.90;999.90;;;;;;;0.00;57.13;101274.41;4949867;28;98939;-67
2022/02/05 11:27:59;;;;;;;1999.90;999.90;;;;;;;0.06;57.54;101266.97;4935010;28;98211;-68
2022/02/05 11:30:36;;;;;;;1999.90;999.90;;;;;;;0.07;56.26;101250.50;4972638;28;97361;-67
2022/02/05 11:33:06;;;;;;;1999.90;999.90;;;;;;;0.09;57.00;101277.69;4952164;28;97754;-67
2022/02/05 11:35:46;;;;;;;1999.90;999.90;;;;;;;0.14;57.01;101257.97;4968973;28;97481;-69
2022/02/05 11:38:28;;;;;;;1999.90;999.90;;;;;;;0.16;55.99;101248.53;4971129;28;99432;-68
2022/02/05 11:40:56;;;;;;;1999.90;999.90;;;;;;;0.17;55.66;101268.66;4973829;28;98154;-68
2022/02/05 11:43:25;;;;;;;1999.90;999.90;;;;;;;0.29;56.46;101276.50;4972779;28;99129;-68
2022/02/05 11:46:10;;;;;;;1999.90;999.90;;;;;;;0.33;55.19;101248.81;4980308;28;97647;-68
2022/02/05 11:48:43;;;;;;;1999.90;999.90;;;;;;;0.41;56.69;101252.88;4977922;28;97170;-71
2022/02/05 11:51:13;;;;;;;1999.90;999.90;;;;;;;0.46;55.88;101260.25;4968968;28;97612;-69
2022/02/05 11:54:07;;;;;;;1999.90;999.90;;;;;;;0.48;53.69;101310.09;4970697;28;102330;-68
2022/02/05 11:56:49;;;;;;;1999.90;999.90;;;;;;;0.54;55.19;101255.56;4969704;28;99130;-67
2022/02/05 11:59:18;;;;;;;1999.90;999.90;;;;;;;0.56;55.29;101254.84;4949693;28;98255;-68
2022/02/05 12:01:46;;;;;;;1999.90;999.90;;;;;;;0.59;55.66;101262.91;4968665;28;98780;-68
2022/02/05 12:04:17;;;;;;;1999.90;999.90;;;;;;;0.63;55.22;101264.03;4970980;28;98567;-68
2022/02/05 12:06:46;;;;;;;1999.90;999.90;;;;;;;0.65;54.97;101288.63;4967823;28;97899;-68
2022/02/05 12:09:40;;;;;;;1999.90;999.90;;;;;;;0.59;52.17;101262.00;4967678;28;97734;-68
2022/02/05 12:12:38;;;;;;;1999.90;999.90;;;;;;;0.52;50.82;101271.13;4959740;28;98915;-67
2022/02/05 12:15:21;;;;;;;1999.90;999.90;;;;;;;0.61;54.53;101239.44;4966067;28;99474;-68
2022/02/05 12:18:17;;;;;;;1999.90;999.90;;;;;;;0.59;52.01;101239.34;4969385;28;97630;-67
2022/02/05 12:21:15;;;;;;;1999.90;999.90;;;;;;;0.63;53.03;101237.84;4954927;28;97599;-68
2022/02/05 12:27:03;;;;;;;1999.90;999.90;;;;;;;0.70;54.22;101241.00;4969391;28;99119;-68
2022/02/05 12:29:33;;;;;;;1999.90;999.90;;;;;;;0.77;54.69;101277.25;4963729;28;100024;-68
2022/02/05 12:32:02;;;;;;;1999.90;999.90;;;;;;;0.80;55.02;101242.50;4968212;28;98130;-68
2022/02/05 12:34:38;;;;;;;1999.90;999.90;;;;;;;0.77;52.44;101232.72;4968339;28;97468;-68
2022/02/05 12:37:07;;;;;;;1999.90;999.90;;;;;;;0.84;55.01;101232.34;4964972;28;98133;-68
2022/02/05 12:39:35;;;;;;;1999.90;999.90;;;;;;;0.85;54.31;101241.13;4952972;28;99219;-68